sensor_id;sensor_type;location;lat;lon;timestamp;pressure;altitude;pressure_sealevel;temperature;humidity
79242;BME280;68670;48.720;9.118;2023-05-06T00:01:39;96933.16;;;13.41;85.93
79242;BME280;68670;48.720;9.118;2023-05-06T00:04:10;96927.66;;;13.41;85.79
79242;BME280;68670;48.720;9.118;2023-05-06T00:06:35;96935.84;;;13.36;85.75
79242;BME280;68670;48.720;9.118;2023-05-06T00:09:01;96932.53;;;13.34;85.77
79242;BME280;68670;48.720;9.118;2023-05-06T00:11:26;96932.25;;;13.36;86.32
79242;BME280;68670;48.720;9.118;2023-05-06T00:13:51;96932.53;;;13.34;86.00
79242;BME280;68670;48.720;9.118;2023-05-06T00:16:16;96918.75;;;13.34;85.93
79242;BME280;68670;48.720;9.118;2023-05-06T00:18:42;96914.34;;;13.33;85.98
79242;BME280;68670;48.720;9.118;2023-05-06T00:21:07;96917.91;;;13.29;86.10
79242;BME280;68670;48.720;9.118;2023-05-06T00:23:32;96917.91;;;13.29;86.27
79242;BME280;68670;48.720;9.118;2023-05-06T00:26:00;96916.13;;;13.18;86.40
79242;BME280;68670;48.720;9.118;2023-05-06T00:28:27;96915.56;;;13.16;86.45
79242;BME280;68670;48.720;9.118;2023-05-06T00:30:55;96909.19;;;13.15;86.29
79242;BME280;68670;48.720;9.118;2023-05-06T00:33:22;96920.72;;;13.12;86.05
79242;BME280;68670;48.720;9.118;2023-05-06T00:35:51;96919.56;;;13.08;86.00
79242;BME280;68670;48.720;9.118;2023-05-06T00:38:18;96911.81;;;13.05;85.39
79242;BME280;68670;48.720;9.118;2023-05-06T00:40:44;96920.66;;;13.07;84.59
79242;BME280;68670;48.720;9.118;2023-05-06T00:43:10;96916.25;;;13.06;84.19
79242;BME280;68670;48.720;9.118;2023-05-06T00:45:35;96927.50;;;13.04;83.96
79242;BME280;68670;48.720;9.118;2023-05-06T00:48:02;96917.97;;;13.12;83.71
79242;BME280;68670;48.720;9.118;2023-05-06T00:50:28;96917.06;;;13.06;83.34
79242;BME280;68670;48.720;9.118;2023-05-06T00:52:57;96919.56;;;13.08;83.33
79242;BME280;68670;48.720;9.118;2023-05-06T00:55:22;96914.63;;;13.10;82.93
79242;BME280;68670;48.720;9.118;2023-05-06T00:57:51;96904.66;;;13.04;82.71
79242;BME280;68670;48.720;9.118;2023-05-06T01:00:20;96915.16;;;13.07;83.56
79242;BME280;68670;48.720;9.118;2023-05-06T01:02:46;96910.16;;;13.04;84.01
79242;BME280;68670;48.720;9.118;2023-05-06T01:05:12;96910.16;;;13.04;84.67
79242;BME280;68670;48.720;9.118;2023-05-06T01:10:12;96907.19;;;12.84;85.23
79242;BME280;68670;48.720;9.118;2023-05-06T01:15:17;96907.31;;;12.72;86.08
79242;BME280;68670;48.720;9.118;2023-05-06T01:17:49;96906.50;;;12.71;85.80
79242;BME280;68670;48.720;9.118;2023-05-06T01:20:20;96913.03;;;12.65;85.56
79242;BME280;68670;48.720;9.118;2023-05-06T01:22:45;96916.88;;;12.64;86.22
79242;BME280;68670;48.720;9.118;2023-05-06T01:25:20;96918.28;;;12.67;86.50
79242;BME280;68670;48.720;9.118;2023-05-06T01:27:45;96927.78;;;12.59;86.23
79242;BME280;68670;48.720;9.118;2023-05-06T01:30:18;96920.63;;;12.58;87.02
79242;BME280;68670;48.720;9.118;2023-05-06T01:32:49;96917.06;;;12.58;87.01
79242;BME280;68670;48.720;9.118;2023-05-06T01:35:35;96912.91;;;12.55;86.97
79242;BME280;68670;48.720;9.118;2023-05-06T01:38:17;96912.91;;;12.55;86.95
79242;BME280;68670;48.720;9.118;2023-05-06T01:40:48;96910.16;;;12.55;86.91
79242;BME280;68670;48.720;9.118;2023-05-06T01:43:20;96913.81;;;12.61;86.75
79242;BME280;68670;48.720;9.118;2023-05-06T01:45:46;96916.22;;;12.57;86.62
79242;BME280;68670;48.720;9.118;2023-05-06T01:48:20;96913.41;;;12.52;86.59
79242;BME280;68670;48.720;9.118;2023-05-06T01:50:46;96919.41;;;12.49;86.85
79242;BME280;68670;48.720;9.118;2023-05-06T01:53:14;96926.81;;;12.49;87.00
79242;BME280;68670;48.720;9.118;2023-05-06T01:55:40;96923.75;;;12.45;87.35
79242;BME280;68670;48.720;9.118;2023-05-06T01:58:05;96925.91;;;12.43;87.24
79242;BME280;68670;48.720;9.118;2023-05-06T02:00:33;96929.25;;;12.45;88.07
79242;BME280;68670;48.720;9.118;2023-05-06T02:03:01;96923.75;;;12.45;87.13
79242;BME280;68670;48.720;9.118;2023-05-06T02:05:28;96929.16;;;12.40;87.21
79242;BME280;68670;48.720;9.118;2023-05-06T02:07:54;96921.44;;;12.37;87.94
79242;BME280;68670;48.720;9.118;2023-05-06T02:10:19;96915.94;;;12.37;87.31
79242;BME280;68670;48.720;9.118;2023-05-06T02:12:47;96913.78;;;12.39;87.20
79242;BME280;68670;48.720;9.118;2023-05-06T02:15:13;96910.44;;;12.37;87.05
79242;BME280;68670;48.720;9.118;2023-05-06T02:17:40;96910.59;;;12.47;86.79
79242;BME280;68670;48.720;9.118;2023-05-06T02:20:07;96920.56;;;12.53;86.39
79242;BME280;68670;48.720;9.118;2023-05-06T02:22:35;96913.41;;;12.52;86.68
79242;BME280;68670;48.720;9.118;2023-05-06T02:25:00;96923.88;;;12.55;86.39
79242;BME280;68670;48.720;9.118;2023-05-06T02:27:26;96920.94;;;12.40;86.58
79242;BME280;68670;48.720;9.118;2023-05-06T02:29:51;96923.41;;;12.41;86.89
79242;BME280;68670;48.720;9.118;2023-05-06T02:32:17;96914.09;;;12.42;86.51
79242;BME280;68670;48.720;9.118;2023-05-06T02:34:42;96913.16;;;12.32;86.98
79242;BME280;68670;48.720;9.118;2023-05-06T02:37:07;96915.34;;;12.35;87.25
79242;BME280;68670;48.720;9.118;2023-05-06T02:39:35;96913.16;;;12.32;87.54
79242;BME280;68670;48.720;9.118;2023-05-06T02:42:02;96920.84;;;12.35;86.88
79242;BME280;68670;48.720;9.118;2023-05-06T02:44:28;96910.41;;;12.32;86.85
79242;BME280;68670;48.720;9.118;2023-05-06T02:46:58;96915.31;;;12.30;87.07
79242;BME280;68670;48.720;9.118;2023-05-06T02:49:23;96906.50;;;12.28;87.59
79242;BME280;68670;48.720;9.118;2023-05-06T02:51:48;96903.25;;;12.31;87.49
79242;BME280;68670;48.720;9.118;2023-05-06T02:54:13;96894.78;;;12.37;86.64
79242;BME280;68670;48.720;9.118;2023-05-06T02:56:41;96898.94;;;12.40;87.05
79242;BME280;68670;48.720;9.118;2023-05-06T02:59:07;96905.59;;;12.44;86.12
79242;BME280;68670;48.720;9.118;2023-05-06T03:01:37;96907.78;;;12.42;85.66
79242;BME280;68670;48.720;9.118;2023-05-06T03:04:02;96903.94;;;12.43;85.56
79242;BME280;68670;48.720;9.118;2023-05-06T03:06:28;96912.75;;;12.45;86.06
79242;BME280;68670;48.720;9.118;2023-05-06T03:09:00;96901.78;;;12.45;85.96
79242;BME280;68670;48.720;9.118;2023-05-06T03:11:29;96893.13;;;12.36;85.96
79242;BME280;68670;48.720;9.118;2023-05-06T03:13:55;96904.94;;;12.37;85.48
79242;BME280;68670;48.720;9.118;2023-05-06T03:16:25;96908.78;;;12.36;85.84
79242;BME280;68670;48.720;9.118;2023-05-06T03:18:53;96902.66;;;12.29;86.05
79242;BME280;68670;48.720;9.118;2023-05-06T03:21:20;96894.84;;;12.21;86.52
79242;BME280;68670;48.720;9.118;2023-05-06T03:23:46;96903.53;;;12.13;87.01
79242;BME280;68670;48.720;9.118;2023-05-06T03:26:13;96895.03;;;12.14;86.73
79242;BME280;68670;48.720;9.118;2023-05-06T03:28:41;96899.88;;;12.07;86.87
79242;BME280;68670;48.720;9.118;2023-05-06T03:31:07;96897.88;;;12.02;87.46
79242;BME280;68670;48.720;9.118;2023-05-06T03:33:32;96899.03;;;12.06;87.05
79242;BME280;68670;48.720;9.118;2023-05-06T03:35:57;96892.38;;;12.02;87.02
79242;BME280;68670;48.720;9.118;2023-05-06T03:38:23;96899.75;;;11.97;87.39
79242;BME280;68670;48.720;9.118;2023-05-06T03:40:48;96899.06;;;11.90;87.70
79242;BME280;68670;48.720;9.118;2023-05-06T03:43:13;96902.06;;;11.88;87.60
79242;BME280;68670;48.720;9.118;2023-05-06T03:45:44;96904.91;;;11.93;87.33
79242;BME280;68670;48.720;9.118;2023-05-06T03:48:09;96898.25;;;11.89;87.23
79242;BME280;68670;48.720;9.118;2023-05-06T03:50:35;96900.91;;;11.84;87.84
79242;BME280;68670;48.720;9.118;2023-05-06T03:53:02;96891.59;;;11.85;87.66
79242;BME280;68670;48.720;9.118;2023-05-06T03:55:28;96892.34;;;11.81;88.01
79242;BME280;68670;48.720;9.118;2023-05-06T03:57:56;96894.25;;;11.80;87.96
79242;BME280;68670;48.720;9.118;2023-05-06T04:00:25;96888.91;;;11.73;88.20
79242;BME280;68670;48.720;9.118;2023-05-06T04:02:50;96893.56;;;11.73;88.10
79242;BME280;68670;48.720;9.118;2023-05-06T04:05:15;96896.25;;;11.68;88.02
79242;BME280;68670;48.720;9.118;2023-05-06T04:07:41;96890.66;;;11.63;88.25
79242;BME280;68670;48.720;9.118;2023-05-06T04:10:06;96900.13;;;11.55;87.79
79242;BME280;68670;48.720;9.118;2023-05-06T04:12:32;96894.22;;;11.47;88.27
79242;BME280;68670;48.720;9.118;2023-05-06T04:15:00;96900.88;;;11.51;87.74
79242;BME280;68670;48.720;9.118;2023-05-06T04:17:28;96902.06;;;11.55;87.79
79242;BME280;68670;48.720;9.118;2023-05-06T04:19:58;96896.22;;;11.51;87.32
79242;BME280;68670;48.720;9.118;2023-05-06T04:22:23;96902.13;;;11.43;87.32
79242;BME280;68670;48.720;9.118;2023-05-06T04:24:48;96896.72;;;11.31;87.73
79242;BME280;68670;48.720;9.118;2023-05-06T04:27:16;96905.59;;;11.22;87.85
79242;BME280;68670;48.720;9.118;2023-05-06T04:29:43;96899.44;;;11.15;88.29
79242;BME280;68670;48.720;9.118;2023-05-06T04:32:11;96909.91;;;11.18;87.90
79242;BME280;68670;48.720;9.118;2023-05-06T04:34:38;96899.69;;;11.13;88.15
79242;BME280;68670;48.720;9.118;2023-05-06T04:37:04;96910.63;;;11.13;88.00
79242;BME280;68670;48.720;9.118;2023-05-06T04:39:29;96908.56;;;11.03;88.20
79242;BME280;68670;48.720;9.118;2023-05-06T04:41:56;96910.84;;;10.95;88.18
79242;BME280;68670;48.720;9.118;2023-05-06T04:44:25;96919.66;;;10.97;88.30
79242;BME280;68670;48.720;9.118;2023-05-06T04:46:55;96924.66;;;11.00;88.41
79242;BME280;68670;48.720;9.118;2023-05-06T04:49:23;96920.25;;;10.99;88.45
79242;BME280;68670;48.720;9.118;2023-05-06T04:51:51;96924.66;;;11.00;88.51
79242;BME280;68670;48.720;9.118;2023-05-06T04:54:18;96926.41;;;11.06;87.92
79242;BME280;68670;48.720;9.118;2023-05-06T04:56:46;96931.41;;;11.09;88.58
79242;BME280;68670;48.720;9.118;2023-05-06T04:59:13;96919.44;;;11.15;88.19
79242;BME280;68670;48.720;9.118;2023-05-06T05:01:43;96923.47;;;11.24;88.33
79242;BME280;68670;48.720;9.118;2023-05-06T05:04:09;96931.28;;;11.32;88.02
79242;BME280;68670;48.720;9.118;2023-05-06T05:06:36;96931.13;;;11.39;88.02
79242;BME280;68670;48.720;9.118;2023-05-06T05:09:04;96931.63;;;11.53;86.98
79242;BME280;68670;48.720;9.118;2023-05-06T05:11:29;96929.66;;;11.65;86.59
79242;BME280;68670;48.720;9.118;2023-05-06T05:13:57;96932.75;;;11.68;86.31
79242;BME280;68670;48.720;9.118;2023-05-06T05:16:22;96938.28;;;11.73;86.64
79242;BME280;68670;48.720;9.118;2023-05-06T05:18:47;96939.69;;;11.76;86.53
79242;BME280;68670;48.720;9.118;2023-05-06T05:21:13;96942.66;;;11.86;86.35
79242;BME280;68670;48.720;9.118;2023-05-06T05:23:43;96934.09;;;11.83;86.66
79242;BME280;68670;48.720;9.118;2023-05-06T05:26:11;96945.66;;;11.85;86.74
79242;BME280;68670;48.720;9.118;2023-05-06T05:28:37;96945.56;;;11.96;85.97
79242;BME280;68670;48.720;9.118;2023-05-06T05:31:02;96943.47;;;12.03;85.63
79242;BME280;68670;48.720;9.118;2023-05-06T05:33:28;96953.09;;;12.06;86.44
79242;BME280;68670;48.720;9.118;2023-05-06T05:35:53;96951.88;;;12.14;86.15
79242;BME280;68670;48.720;9.118;2023-05-06T05:38:21;96954.59;;;12.14;86.92
79242;BME280;68670;48.720;9.118;2023-05-06T05:40:50;96954.44;;;12.20;86.08
79242;BME280;68670;48.720;9.118;2023-05-06T05:43:15;96953.25;;;12.33;84.77
79242;BME280;68670;48.720;9.118;2023-05-06T05:45:43;96958.56;;;12.39;84.62
79242;BME280;68670;48.720;9.118;2023-05-06T05:48:10;96957.78;;;12.44;85.91
79242;BME280;68670;48.720;9.118;2023-05-06T05:50:36;96964.69;;;12.47;86.16
79242;BME280;68670;48.720;9.118;2023-05-06T05:53:03;96964.19;;;12.50;86.84
79242;BME280;68670;48.720;9.118;2023-05-06T05:55:29;96959.69;;;12.60;84.98
79242;BME280;68670;48.720;9.118;2023-05-06T05:57:57;96959.50;;;12.67;84.30
79242;BME280;68670;48.720;9.118;2023-05-06T06:00:22;96959.28;;;12.73;83.98
79242;BME280;68670;48.720;9.118;2023-05-06T06:02:47;96950.09;;;12.85;83.76
79242;BME280;68670;48.720;9.118;2023-05-06T06:05:15;96957.91;;;12.93;83.79
79242;BME280;68670;48.720;9.118;2023-05-06T06:07:40;96956.88;;;12.99;84.07
79242;BME280;68670;48.720;9.118;2023-05-06T06:10:06;96959.66;;;13.04;80.00
79242;BME280;68670;48.720;9.118;2023-05-06T06:12:34;96951.16;;;13.05;80.64
79242;BME280;68670;48.720;9.118;2023-05-06T06:15:02;96955.31;;;13.08;82.17
79242;BME280;68670;48.720;9.118;2023-05-06T06:17:27;96958.63;;;13.10;78.21
79242;BME280;68670;48.720;9.118;2023-05-06T06:19:52;96953.47;;;13.13;78.29
79242;BME280;68670;48.720;9.118;2023-05-06T06:22:22;96965.97;;;13.21;77.24
79242;BME280;68670;48.720;9.118;2023-05-06T06:24:47;96957.75;;;13.26;76.93
79242;BME280;68670;48.720;9.118;2023-05-06T06:27:12;96956.16;;;13.30;76.86
79242;BME280;68670;48.720;9.118;2023-05-06T06:29:37;96960.00;;;13.29;79.80
79242;BME280;68670;48.720;9.118;2023-05-06T06:32:03;96963.28;;;13.26;78.94
79242;BME280;68670;48.720;9.118;2023-05-06T06:34:33;96961.09;;;13.28;78.65
79242;BME280;68670;48.720;9.118;2023-05-06T06:37:00;96968.81;;;13.31;79.29
79242;BME280;68670;48.720;9.118;2023-05-06T06:39:25;96973.53;;;13.36;78.04
79242;BME280;68670;48.720;9.118;2023-05-06T06:41:55;96972.50;;;13.42;77.46
79242;BME280;68670;48.720;9.118;2023-05-06T06:44:22;96970.56;;;13.42;78.20
79242;BME280;68670;48.720;9.118;2023-05-06T06:46:48;96974.78;;;13.50;76.65
79242;BME280;68670;48.720;9.118;2023-05-06T06:49:15;96982.28;;;13.55;79.00
79242;BME280;68670;48.720;9.118;2023-05-06T06:51:40;96975.63;;;13.51;78.09
79242;BME280;68670;48.720;9.118;2023-05-06T06:54:06;96971.34;;;13.65;75.43
79242;BME280;68670;48.720;9.118;2023-05-06T06:56:31;96965.84;;;13.65;74.35
79242;BME280;68670;48.720;9.118;2023-05-06T06:58:59;96965.63;;;13.71;73.79
79242;BME280;68670;48.720;9.118;2023-05-06T07:01:24;96974.19;;;13.75;75.43
79242;BME280;68670;48.720;9.118;2023-05-06T07:03:50;96972.59;;;13.79;75.78
79242;BME280;68670;48.720;9.118;2023-05-06T07:06:18;96973.78;;;13.88;76.27
79242;BME280;68670;48.720;9.118;2023-05-06T07:08:43;96977.16;;;13.95;71.42
79242;BME280;68670;48.720;9.118;2023-05-06T07:11:08;96982.50;;;14.12;69.84
79242;BME280;68670;48.720;9.118;2023-05-06T07:13:34;96973.50;;;14.22;71.45
79242;BME280;68670;48.720;9.118;2023-05-06T07:16:01;96983.41;;;14.23;69.92
79242;BME280;68670;48.720;9.118;2023-05-06T07:18:27;96979.88;;;14.27;71.93
79242;BME280;68670;48.720;9.118;2023-05-06T07:20:52;96983.78;;;14.36;67.81
79242;BME280;68670;48.720;9.118;2023-05-06T07:23:17;96993.25;;;14.45;69.95
79242;BME280;68670;48.720;9.118;2023-05-06T07:25:43;96985.28;;;14.49;70.41
79242;BME280;68670;48.720;9.118;2023-05-06T07:28:08;96988.03;;;14.49;70.71
79242;BME280;68670;48.720;9.118;2023-05-06T07:30:36;96988.66;;;14.56;71.89
79242;BME280;68670;48.720;9.118;2023-05-06T07:33:02;96993.63;;;14.59;70.96
79242;BME280;68670;48.720;9.118;2023-05-06T07:35:27;96994.22;;;14.71;71.18
79242;BME280;68670;48.720;9.118;2023-05-06T07:37:55;96983.81;;;14.78;69.76
79242;BME280;68670;48.720;9.118;2023-05-06T07:40:20;96985.78;;;14.88;69.57
79242;BME280;68670;48.720;9.118;2023-05-06T07:42:48;96996.59;;;15.05;70.44
79242;BME280;68670;48.720;9.118;2023-05-06T07:45:16;96988.91;;;15.12;67.87
79242;BME280;68670;48.720;9.118;2023-05-06T07:47:43;96988.91;;;15.12;68.43
79242;BME280;68670;48.720;9.118;2023-05-06T07:50:09;96990.03;;;15.11;66.99
79242;BME280;68670;48.720;9.118;2023-05-06T07:52:37;96992.81;;;15.16;66.84
79242;BME280;68670;48.720;9.118;2023-05-06T07:55:02;96992.84;;;15.26;67.69
79242;BME280;68670;48.720;9.118;2023-05-06T07:57:29;97001.69;;;15.33;67.37
79242;BME280;68670;48.720;9.118;2023-05-06T07:59:54;96997.81;;;15.34;67.67
79242;BME280;68670;48.720;9.118;2023-05-06T08:02:19;96991.78;;;15.42;68.08
79242;BME280;68670;48.720;9.118;2023-05-06T08:04:45;96998.19;;;15.53;69.13
79242;BME280;68670;48.720;9.118;2023-05-06T08:07:10;97004.03;;;15.67;64.96
79242;BME280;68670;48.720;9.118;2023-05-06T08:09:38;97001.59;;;15.86;63.56
79242;BME280;68670;48.720;9.118;2023-05-06T08:12:06;97008.22;;;16.00;65.69
79242;BME280;68670;48.720;9.118;2023-05-06T08:14:34;97007.13;;;16.06;67.69
79242;BME280;68670;48.720;9.118;2023-05-06T08:17:02;97009.06;;;16.21;66.12
79242;BME280;68670;48.720;9.118;2023-05-06T08:19:30;97006.59;;;17.44;64.22
79242;BME280;68670;48.720;9.118;2023-05-06T08:21:57;97000.22;;;18.66;60.19
79242;BME280;68670;48.720;9.118;2023-05-06T08:24:25;96991.53;;;19.87;55.75
79242;BME280;68670;48.720;9.118;2023-05-06T08:26:55;96997.94;;;20.44;53.77
79242;BME280;68670;48.720;9.118;2023-05-06T08:29:20;96995.34;;;20.94;55.92
79242;BME280;68670;48.720;9.118;2023-05-06T08:31:48;96995.72;;;21.47;55.09
79242;BME280;68670;48.720;9.118;2023-05-06T08:34:13;97001.03;;;20.89;53.49
79242;BME280;68670;48.720;9.118;2023-05-06T08:36:45;97003.84;;;20.19;55.07
79242;BME280;68670;48.720;9.118;2023-05-06T08:39:10;96997.84;;;19.50;55.05
79242;BME280;68670;48.720;9.118;2023-05-06T08:41:39;96999.31;;;18.76;56.37
79242;BME280;68670;48.720;9.118;2023-05-06T08:44:06;97002.25;;;18.85;55.84
79242;BME280;68670;48.720;9.118;2023-05-06T08:46:32;97003.22;;;18.99;55.71
79242;BME280;68670;48.720;9.118;2023-05-06T08:48:59;97002.16;;;19.42;56.71
79242;BME280;68670;48.720;9.118;2023-05-06T08:51:28;97002.63;;;19.26;56.24
79242;BME280;68670;48.720;9.118;2023-05-06T08:53:59;97000.03;;;19.34;53.31
79242;BME280;68670;48.720;9.118;2023-05-06T08:56:32;96993.94;;;19.56;52.88
79242;BME280;68670;48.720;9.118;2023-05-06T08:58:58;97002.53;;;19.97;53.61
79242;BME280;68670;48.720;9.118;2023-05-06T09:01:27;96999.66;;;20.21;57.72
79242;BME280;68670;48.720;9.118;2023-05-06T09:03:56;96998.63;;;19.98;54.92
79242;BME280;68670;48.720;9.118;2023-05-06T09:06:22;96996.28;;;19.87;49.53
79242;BME280;68670;48.720;9.118;2023-05-06T09:08:48;97004.84;;;19.71;54.02
79242;BME280;68670;48.720;9.118;2023-05-06T09:13:48;96998.59;;;19.61;51.22
79242;BME280;68670;48.720;9.118;2023-05-06T09:16:27;96999.31;;;19.48;51.19
79242;BME280;68670;48.720;9.118;2023-05-06T09:18:55;97000.50;;;19.41;53.16
79242;BME280;68670;48.720;9.118;2023-05-06T09:21:30;96998.13;;;19.54;55.08
79242;BME280;68670;48.720;9.118;2023-05-06T09:23:56;96990.56;;;20.16;54.08
79242;BME280;68670;48.720;9.118;2023-05-06T09:26:26;96997.41;;;20.42;53.34
79242;BME280;68670;48.720;9.118;2023-05-06T09:28:51;96988.75;;;20.43;51.27
79242;BME280;68670;48.720;9.118;2023-05-06T09:31:17;96994.22;;;19.55;50.07
79242;BME280;68670;48.720;9.118;2023-05-06T09:33:42;96988.78;;;19.44;52.91
79242;BME280;68670;48.720;9.118;2023-05-06T09:36:10;96984.66;;;19.18;51.79
79242;BME280;68670;48.720;9.118;2023-05-06T09:38:41;96993.31;;;18.88;55.17
79242;BME280;68670;48.720;9.118;2023-05-06T09:41:08;96989.88;;;18.43;54.76
79242;BME280;68670;48.720;9.118;2023-05-06T09:43:35;96990.53;;;18.30;53.76
79242;BME280;68670;48.720;9.118;2023-05-06T09:46:02;96984.78;;;18.21;57.60
79242;BME280;68670;48.720;9.118;2023-05-06T09:48:30;96994.88;;;18.07;56.65
79242;BME280;68670;48.720;9.118;2023-05-06T09:50:56;96986.94;;;17.90;57.21
79242;BME280;68670;48.720;9.118;2023-05-06T09:53:22;96987.66;;;17.67;55.29
79242;BME280;68670;48.720;9.118;2023-05-06T09:55:48;96982.75;;;17.54;58.43
79242;BME280;68670;48.720;9.118;2023-05-06T09:58:18;96981.03;;;17.58;57.55
79242;BME280;68670;48.720;9.118;2023-05-06T10:00:46;96980.19;;;17.57;58.47
79242;BME280;68670;48.720;9.118;2023-05-06T10:03:14;96980.88;;;17.88;56.44
79242;BME280;68670;48.720;9.118;2023-05-06T10:05:40;96980.31;;;18.54;54.72
79242;BME280;68670;48.720;9.118;2023-05-06T10:08:07;96970.84;;;19.13;55.52
79242;BME280;68670;48.720;9.118;2023-05-06T10:10:33;96967.06;;;19.89;55.73
79242;BME280;68670;48.720;9.118;2023-05-06T10:13:02;96966.44;;;19.92;49.48
79242;BME280;68670;48.720;9.118;2023-05-06T10:15:31;96964.28;;;19.89;53.60
79242;BME280;68670;48.720;9.118;2023-05-06T10:17:58;96965.19;;;20.03;51.06
79242;BME280;68670;48.720;9.118;2023-05-06T10:20:25;96958.53;;;20.69;55.19
79242;BME280;68670;48.720;9.118;2023-05-06T10:25:38;96950.91;;;21.93;50.44
79242;BME280;68670;48.720;9.118;2023-05-06T10:28:05;96959.91;;;22.49;42.63
79242;BME280;68670;48.720;9.118;2023-05-06T10:30:35;96946.88;;;22.89;43.00
79242;BME280;68670;48.720;9.118;2023-05-06T10:33:09;96939.63;;;22.88;44.68
79242;BME280;68670;48.720;9.118;2023-05-06T10:38:37;96928.78;;;23.91;45.23
79242;BME280;68670;48.720;9.118;2023-05-06T10:41:05;96928.94;;;24.12;46.76
79242;BME280;68670;48.720;9.118;2023-05-06T10:43:32;96926.13;;;24.21;42.02
79242;BME280;68670;48.720;9.118;2023-05-06T10:48:27;96922.50;;;23.77;40.28
79242;BME280;68670;48.720;9.118;2023-05-06T10:56:37;96915.38;;;22.97;40.73
79242;BME280;68670;48.720;9.118;2023-05-06T10:59:06;96913.09;;;23.56;42.45
79242;BME280;68670;48.720;9.118;2023-05-06T11:01:36;96905.25;;;24.27;37.98
79242;BME280;68670;48.720;9.118;2023-05-06T11:04:06;96906.19;;;24.57;39.83
79242;BME280;68670;48.720;9.118;2023-05-06T11:06:32;96906.06;;;24.36;38.19
79242;BME280;68670;48.720;9.118;2023-05-06T11:08:58;96898.66;;;23.97;34.57
79242;BME280;68670;48.720;9.118;2023-05-06T11:14:23;96898.09;;;23.52;42.59
79242;BME280;68670;48.720;9.118;2023-05-06T11:16:50;96899.31;;;23.94;43.11
79242;BME280;68670;48.720;9.118;2023-05-06T11:19:27;96897.50;;;24.24;42.04
79242;BME280;68670;48.720;9.118;2023-05-06T11:21:55;96886.47;;;24.01;39.28
79242;BME280;68670;48.720;9.118;2023-05-06T11:24:25;96896.06;;;23.26;41.84
79242;BME280;68670;48.720;9.118;2023-05-06T11:26:51;96889.97;;;22.23;40.37
79242;BME280;68670;48.720;9.118;2023-05-06T11:29:17;96897.00;;;21.62;42.68
79242;BME280;68670;48.720;9.118;2023-05-06T11:31:47;96893.41;;;21.48;44.59
79242;BME280;68670;48.720;9.118;2023-05-06T11:34:20;96891.03;;;21.55;46.63
79242;BME280;68670;48.720;9.118;2023-05-06T11:36:51;96893.94;;;21.50;43.17
79242;BME280;68670;48.720;9.118;2023-05-06T11:39:19;96896.84;;;21.80;45.13
79242;BME280;68670;48.720;9.118;2023-05-06T11:41:45;96888.78;;;21.79;42.35
79242;BME280;68670;48.720;9.118;2023-05-06T11:44:22;96885.00;;;21.39;42.30
79242;BME280;68670;48.720;9.118;2023-05-06T11:46:48;96892.13;;;21.04;43.94
79242;BME280;68670;48.720;9.118;2023-05-06T11:49:13;96896.88;;;20.90;47.57
79242;BME280;68670;48.720;9.118;2023-05-06T11:51:39;96888.34;;;21.50;44.67
79242;BME280;68670;48.720;9.118;2023-05-06T11:54:10;96889.50;;;21.49;43.56
79242;BME280;68670;48.720;9.118;2023-05-06T11:56:50;96891.00;;;21.32;44.25
79242;BME280;68670;48.720;9.118;2023-05-06T11:59:17;96906.34;;;21.16;45.45
79242;BME280;68670;48.720;9.118;2023-05-06T12:01:44;96899.56;;;21.08;47.46
79242;BME280;68670;48.720;9.118;2023-05-06T12:04:12;96896.25;;;20.93;47.45
79242;BME280;68670;48.720;9.118;2023-05-06T12:06:37;96890.84;;;20.41;45.85
79242;BME280;68670;48.720;9.118;2023-05-06T12:09:08;96897.03;;;20.38;48.64
79242;BME280;68670;48.720;9.118;2023-05-06T12:11:36;96902.00;;;20.41;49.51
79242;BME280;68670;48.720;9.118;2023-05-06T12:14:04;96899.22;;;20.23;46.98
79242;BME280;68670;48.720;9.118;2023-05-06T12:16:32;96894.25;;;20.20;48.44
79242;BME280;68670;48.720;9.118;2023-05-06T12:19:01;96890.75;;;20.14;50.56
79242;BME280;68670;48.720;9.118;2023-05-06T12:21:29;96891.75;;;20.04;47.79
79242;BME280;68670;48.720;9.118;2023-05-06T12:23:59;96887.41;;;19.98;49.23
79242;BME280;68670;48.720;9.118;2023-05-06T12:26:27;96889.81;;;19.86;49.38
79242;BME280;68670;48.720;9.118;2023-05-06T12:29:05;96897.63;;;19.84;47.83
79242;BME280;68670;48.720;9.118;2023-05-06T12:31:31;96894.22;;;19.73;48.98
79242;BME280;68670;48.720;9.118;2023-05-06T12:33:59;96884.75;;;19.56;48.44
79242;BME280;68670;48.720;9.118;2023-05-06T12:36:24;96894.06;;;19.65;52.78
79242;BME280;68670;48.720;9.118;2023-05-06T12:38:58;96892.25;;;19.74;48.85
79242;BME280;68670;48.720;9.118;2023-05-06T12:41:43;96886.34;;;20.87;49.95
79242;BME280;68670;48.720;9.118;2023-05-06T12:44:46;96883.31;;;22.32;48.27
79242;BME280;68670;48.720;9.118;2023-05-06T12:47:24;96873.53;;;23.23;42.89
79242;BME280;68670;48.720;9.118;2023-05-06T12:52:16;96873.13;;;24.16;39.22
79242;BME280;68670;48.720;9.118;2023-05-06T12:54:42;96877.94;;;24.70;44.87
79242;BME280;68670;48.720;9.118;2023-05-06T12:57:07;96873.38;;;25.13;40.12
79242;BME280;68670;48.720;9.118;2023-05-06T12:59:34;96878.75;;;25.26;40.25
79242;BME280;68670;48.720;9.118;2023-05-06T13:01:59;96868.22;;;25.23;41.27
79242;BME280;68670;48.720;9.118;2023-05-06T13:04:29;96873.63;;;24.99;36.95
79242;BME280;68670;48.720;9.118;2023-05-06T13:06:55;96870.53;;;24.74;37.57
79242;BME280;68670;48.720;9.118;2023-05-06T13:09:21;96866.63;;;25.05;36.01
79242;BME280;68670;48.720;9.118;2023-05-06T13:11:46;96858.56;;;25.03;35.64
79242;BME280;68670;48.720;9.118;2023-05-06T13:14:12;96843.03;;;25.35;35.30
79242;BME280;68670;48.720;9.118;2023-05-06T13:16:37;96839.00;;;25.74;35.29
79242;BME280;68670;48.720;9.118;2023-05-06T13:19:07;96838.19;;;25.24;35.51
79242;BME280;68670;48.720;9.118;2023-05-06T13:21:34;96833.75;;;24.85;36.78
79242;BME280;68670;48.720;9.118;2023-05-06T13:24:00;96834.31;;;23.88;38.32
79242;BME280;68670;48.720;9.118;2023-05-06T13:26:25;96832.03;;;22.90;38.17
79242;BME280;68670;48.720;9.118;2023-05-06T13:28:51;96822.69;;;22.24;40.56